createdAt,value
2022-12-20T00:00:13.131Z,0.00
2022-12-20T00:01:13.099Z,0.00
2022-12-20T00:02:13.170Z,0.00
2022-12-20T00:03:13.098Z,0.00
2022-12-20T00:04:13.062Z,0.00
2022-12-20T00:05:13.038Z,0.00
2022-12-20T00:06:13.032Z,0.00
2022-12-20T00:07:13.016Z,0.00
2022-12-20T00:08:12.999Z,0.00
2022-12-20T00:09:12.984Z,0.00
2022-12-20T00:10:12.968Z,0.00
2022-12-20T00:11:12.964Z,0.00
2022-12-20T00:12:12.948Z,0.00
2022-12-20T00:13:12.932Z,0.00
2022-12-20T00:14:12.916Z,0.00
2022-12-20T00:15:12.898Z,0.00
2022-12-20T00:16:12.886Z,0.00
2022-12-20T00:17:12.868Z,0.00
2022-12-20T00:18:12.912Z,0.00
2022-12-20T00:19:12.843Z,0.00
2022-12-20T00:20:12.825Z,0.00
2022-12-20T00:21:12.832Z,0.00
2022-12-20T00:22:12.797Z,0.00
2022-12-20T00:23:12.781Z,0.00
2022-12-20T00:24:12.773Z,0.00
2022-12-20T00:25:12.760Z,0.00
2022-12-20T00:26:12.738Z,0.00
2022-12-20T00:27:12.727Z,0.00
2022-12-20T00:28:12.711Z,0.00
2022-12-20T00:29:12.706Z,0.00
2022-12-20T00:30:12.684Z,0.00
2022-12-20T00:31:12.740Z,0.00
2022-12-20T00:32:12.656Z,0.00
2022-12-20T00:33:12.641Z,0.00
2022-12-20T00:34:12.632Z,0.00
2022-12-20T00:35:12.610Z,0.00
2022-12-20T00:36:12.607Z,0.00
2022-12-20T00:37:12.583Z,0.00
2022-12-20T00:38:12.602Z,0.00
2022-12-20T00:39:12.563Z,0.00
2022-12-20T00:40:12.550Z,0.00
2022-12-20T00:41:12.532Z,0.00
2022-12-20T00:42:12.509Z,0.00
2022-12-20T00:43:12.510Z,0.00
2022-12-20T00:44:12.490Z,0.00
2022-12-20T00:45:12.469Z,0.00
2022-12-20T00:46:12.471Z,0.00
2022-12-20T00:47:12.524Z,0.00
2022-12-20T00:48:12.427Z,0.00
2022-12-20T00:49:12.431Z,0.00
2022-12-20T00:50:12.397Z,0.00
2022-12-20T00:51:12.389Z,0.00
2022-12-20T00:52:12.370Z,0.00
2022-12-20T00:53:12.358Z,0.00
2022-12-20T00:54:12.338Z,0.00
2022-12-20T00:55:12.325Z,0.00
2022-12-20T00:56:12.311Z,0.00
2022-12-20T00:57:12.307Z,0.00
2022-12-20T00:58:12.285Z,0.00
2022-12-20T00:59:12.272Z,0.00
2022-12-20T01:00:12.250Z,0.00
2022-12-20T01:01:12.295Z,0.00
2022-12-20T01:02:12.416Z,0.00
2022-12-20T01:03:12.381Z,0.00
2022-12-20T01:04:12.200Z,0.00
2022-12-20T01:05:12.188Z,0.00
2022-12-20T01:06:12.160Z,0.00
2022-12-20T01:07:12.172Z,0.00
2022-12-20T01:08:12.141Z,0.00
2022-12-20T01:09:12.138Z,0.00
2022-12-20T01:10:12.115Z,0.00
2022-12-20T01:11:12.100Z,0.00
2022-12-20T01:12:12.085Z,0.00
2022-12-20T01:13:12.073Z,0.00
2022-12-20T01:14:12.080Z,0.00
2022-12-20T01:15:12.047Z,0.00
2022-12-20T01:16:12.090Z,0.00
2022-12-20T01:17:12.016Z,0.00
2022-12-20T01:18:12.027Z,0.00
2022-12-20T01:19:12.171Z,0.00
2022-12-20T01:20:11.970Z,0.00
2022-12-20T01:21:11.954Z,0.00
2022-12-20T01:22:11.945Z,0.00
2022-12-20T01:23:11.930Z,0.00
2022-12-20T01:24:11.911Z,0.00
2022-12-20T01:25:11.925Z,0.00
2022-12-20T01:26:11.883Z,0.00
2022-12-20T01:27:11.897Z,0.00
2022-12-20T01:28:11.869Z,0.00
2022-12-20T01:29:11.867Z,0.00
2022-12-20T01:30:11.900Z,0.00
2022-12-20T01:31:11.977Z,0.00
2022-12-20T01:32:11.809Z,0.00
2022-12-20T01:33:11.820Z,0.00
2022-12-20T01:34:11.797Z,0.00
2022-12-20T01:35:11.774Z,0.00
2022-12-20T01:36:11.771Z,0.00
2022-12-20T01:37:11.726Z,0.00
2022-12-20T01:38:11.715Z,0.00
2022-12-20T01:39:11.715Z,0.00
2022-12-20T01:40:11.681Z,0.00
2022-12-20T01:41:11.671Z,0.00
2022-12-20T01:42:11.666Z,0.00
2022-12-20T01:43:11.643Z,0.00
2022-12-20T01:44:11.625Z,0.00
2022-12-20T01:45:11.616Z,0.00
2022-12-20T01:46:11.646Z,0.00
2022-12-20T01:47:11.587Z,0.00
2022-12-20T01:48:11.571Z,0.00
2022-12-20T01:49:11.559Z,0.00
2022-12-20T01:50:11.543Z,0.00
2022-12-20T01:51:11.529Z,0.00
2022-12-20T01:52:11.512Z,0.00
2022-12-20T01:53:11.499Z,0.00
2022-12-20T01:54:11.496Z,0.00
2022-12-20T01:55:11.487Z,0.00
2022-12-20T01:56:11.466Z,0.00
2022-12-20T01:57:11.458Z,0.00
2022-12-20T01:58:11.431Z,0.00
2022-12-20T01:59:11.415Z,0.00
2022-12-20T02:00:11.402Z,0.00
2022-12-20T02:01:11.493Z,0.00
2022-12-20T02:02:11.600Z,0.00
2022-12-20T02:03:11.525Z,0.00
2022-12-20T02:04:11.343Z,0.00
2022-12-20T02:05:11.336Z,0.00
2022-12-20T02:06:11.316Z,0.00
2022-12-20T02:07:11.300Z,0.00
2022-12-20T02:08:11.287Z,0.00
2022-12-20T02:09:11.295Z,0.00
2022-12-20T02:10:11.261Z,0.00
2022-12-20T02:11:11.253Z,0.00
2022-12-20T02:12:11.232Z,0.00
2022-12-20T02:13:11.217Z,0.00
2022-12-20T02:14:11.200Z,0.00
2022-12-20T02:15:11.189Z,0.00
2022-12-20T02:16:11.243Z,0.00
2022-12-20T02:17:11.225Z,0.00
2022-12-20T02:18:11.144Z,0.00
2022-12-20T02:19:11.130Z,0.00
2022-12-20T02:20:11.128Z,0.00
2022-12-20T02:21:11.103Z,0.00
2022-12-20T02:22:11.092Z,0.00
2022-12-20T02:23:11.077Z,0.00
2022-12-20T02:24:11.088Z,0.00
2022-12-20T02:25:11.044Z,0.00
2022-12-20T02:26:11.031Z,0.00
2022-12-20T02:27:11.024Z,0.00
2022-12-20T02:28:11.005Z,0.00
2022-12-20T02:29:10.995Z,0.00
2022-12-20T02:30:10.978Z,0.00
2022-12-20T02:31:10.964Z,0.00
2022-12-20T02:32:10.993Z,0.00
2022-12-20T02:33:10.937Z,0.00
2022-12-20T02:34:10.913Z,0.00
2022-12-20T02:35:10.939Z,0.00
2022-12-20T02:36:10.900Z,0.00
2022-12-20T02:37:10.915Z,0.00
2022-12-20T02:38:10.862Z,0.00
2022-12-20T02:39:10.847Z,0.00
2022-12-20T02:40:10.834Z,0.00
2022-12-20T02:41:10.817Z,0.00
2022-12-20T02:42:10.808Z,0.00
2022-12-20T02:43:10.792Z,0.00
2022-12-20T02:44:10.778Z,0.00
2022-12-20T02:45:10.766Z,0.00
2022-12-20T02:46:10.821Z,0.00
2022-12-20T02:47:10.735Z,0.00
2022-12-20T02:48:10.730Z,0.00
2022-12-20T02:49:10.701Z,0.00
2022-12-20T02:50:10.690Z,0.00
2022-12-20T02:51:10.678Z,0.00
2022-12-20T02:52:10.660Z,0.00
2022-12-20T02:53:10.646Z,0.00
2022-12-20T02:54:10.630Z,0.00
2022-12-20T02:55:10.620Z,0.00
2022-12-20T02:56:10.612Z,0.00
2022-12-20T02:57:10.592Z,0.00
2022-12-20T02:58:10.572Z,0.00
2022-12-20T02:59:10.559Z,0.00
2022-12-20T03:00:10.555Z,0.00
2022-12-20T03:01:10.571Z,0.00
2022-12-20T03:02:10.697Z,0.00
2022-12-20T03:03:10.698Z,0.00
2022-12-20T03:04:10.494Z,0.00
2022-12-20T03:05:10.474Z,0.00
2022-12-20T03:06:10.462Z,0.00
2022-12-20T03:07:10.452Z,0.00
2022-12-20T03:08:10.438Z,0.00
2022-12-20T03:09:10.418Z,0.00
2022-12-20T03:10:10.409Z,0.00
2022-12-20T03:11:10.393Z,0.00
2022-12-20T03:12:10.373Z,0.00
2022-12-20T03:13:17.522Z,0.00
2022-12-20T03:15:14.304Z,0.00
2022-12-20T03:16:14.361Z,0.00
2022-12-20T03:18:18.206Z,0.00
2022-12-20T03:19:18.194Z,0.00
2022-12-20T03:21:22.126Z,0.00
2022-12-20T03:22:22.093Z,0.00
2022-12-20T03:24:14.971Z,0.00
2022-12-20T03:25:14.935Z,0.00
2022-12-20T03:27:18.911Z,0.00
2022-12-20T03:28:18.891Z,0.00
2022-12-20T03:30:22.826Z,0.00
2022-12-20T03:31:22.877Z,0.00
2022-12-20T03:33:26.827Z,0.00
2022-12-20T03:34:26.720Z,0.00
2022-12-20T03:35:26.762Z,0.00
2022-12-20T03:36:26.686Z,0.00
2022-12-20T03:37:26.670Z,0.00
2022-12-20T03:38:26.666Z,0.00
2022-12-20T03:39:26.640Z,0.00
2022-12-20T03:40:26.637Z,0.00
2022-12-20T03:41:26.614Z,0.00
2022-12-20T03:42:26.602Z,0.00
2022-12-20T03:43:26.586Z,0.00
2022-12-20T03:44:26.620Z,0.00
2022-12-20T03:45:26.555Z,0.00
2022-12-20T03:46:26.592Z,0.00
2022-12-20T03:47:26.534Z,0.00
2022-12-20T03:48:26.535Z,0.00
2022-12-20T03:49:26.499Z,0.00
2022-12-20T03:50:26.487Z,0.00
2022-12-20T03:51:26.485Z,0.00
2022-12-20T03:52:26.459Z,0.00
2022-12-20T03:53:26.445Z,0.00
2022-12-20T03:54:26.429Z,0.00
2022-12-20T03:55:26.419Z,0.00
2022-12-20T03:56:26.405Z,0.00
2022-12-20T03:57:26.402Z,0.00
2022-12-20T03:58:26.383Z,0.00
2022-12-20T03:59:26.355Z,0.00
2022-12-20T04:00:26.354Z,0.00
2022-12-20T04:01:26.414Z,0.00
2022-12-20T04:02:26.581Z,0.00
2022-12-20T04:03:26.364Z,0.00
2022-12-20T04:04:26.287Z,0.00
2022-12-20T04:05:26.279Z,0.00
2022-12-20T04:06:26.290Z,0.00
2022-12-20T04:07:26.255Z,0.00
2022-12-20T04:08:26.241Z,0.00
2022-12-20T04:09:26.216Z,0.00
2022-12-20T04:10:26.202Z,0.00
2022-12-20T04:11:26.210Z,0.00
2022-12-20T04:12:26.179Z,0.00
2022-12-20T04:13:26.163Z,0.00
2022-12-20T04:14:26.156Z,0.00
2022-12-20T04:15:26.153Z,0.00
2022-12-20T04:16:26.159Z,0.00
2022-12-20T04:17:26.106Z,0.00
2022-12-20T04:18:26.096Z,0.00
2022-12-20T04:19:26.081Z,0.00
2022-12-20T04:20:26.064Z,0.00
2022-12-20T04:21:26.069Z,0.00
2022-12-20T04:22:26.048Z,0.00
2022-12-20T04:23:26.019Z,0.00
2022-12-20T04:24:26.006Z,0.00
2022-12-20T04:25:26.002Z,0.00
2022-12-20T04:26:25.991Z,0.00
2022-12-20T04:27:25.969Z,0.00
2022-12-20T04:28:25.964Z,0.00
2022-12-20T04:29:25.946Z,0.00
2022-12-20T04:30:25.921Z,0.00
2022-12-20T04:31:25.945Z,0.00
2022-12-20T04:32:25.910Z,0.00
2022-12-20T04:33:25.887Z,0.00
2022-12-20T04:34:25.866Z,0.00
2022-12-20T04:35:25.852Z,0.00
2022-12-20T04:36:25.834Z,0.00
2022-12-20T04:37:25.823Z,0.00
2022-12-20T04:38:25.812Z,0.00
2022-12-20T04:39:25.791Z,0.00
2022-12-20T04:40:25.785Z,0.00
2022-12-20T04:41:25.765Z,0.00
2022-12-20T04:42:25.755Z,0.00
2022-12-20T04:43:25.736Z,0.00
2022-12-20T04:44:25.857Z,0.00
2022-12-20T04:45:25.708Z,0.00
2022-12-20T04:46:25.723Z,0.00
2022-12-20T04:47:25.695Z,0.00
2022-12-20T04:48:57.275Z,0.00
2022-12-20T04:49:25.649Z,0.00
2022-12-20T04:50:25.647Z,0.00
2022-12-20T04:51:25.622Z,0.00
2022-12-20T04:52:25.611Z,0.00
2022-12-20T04:53:25.604Z,0.00
2022-12-20T04:54:25.579Z,0.00
2022-12-20T04:55:25.568Z,0.00
2022-12-20T04:56:25.549Z,0.00
2022-12-20T04:57:25.541Z,0.00
2022-12-20T04:58:25.523Z,0.00
2022-12-20T04:59:25.523Z,0.00
2022-12-20T05:00:25.500Z,0.00
2022-12-20T05:01:25.702Z,0.00
2022-12-20T05:02:25.600Z,0.00
2022-12-20T05:03:25.482Z,0.00
2022-12-20T05:04:25.438Z,0.00
2022-12-20T05:05:25.426Z,0.00
2022-12-20T05:06:25.422Z,0.00
2022-12-20T05:07:25.426Z,0.00
2022-12-20T05:08:25.381Z,0.00
2022-12-20T05:09:25.371Z,0.00
2022-12-20T05:10:25.355Z,0.00
2022-12-20T05:11:25.341Z,0.00
2022-12-20T05:12:25.330Z,0.00
2022-12-20T05:13:25.315Z,0.00
2022-12-20T05:14:25.295Z,0.00
2022-12-20T05:15:25.288Z,0.00
2022-12-20T05:16:25.300Z,0.00
2022-12-20T05:17:26.106Z,0.00
2022-12-20T05:18:25.241Z,0.00
2022-12-20T05:19:25.225Z,0.00
2022-12-20T05:20:25.263Z,0.00
2022-12-20T05:21:25.199Z,0.00
2022-12-20T05:22:25.185Z,0.00
2022-12-20T05:23:25.169Z,0.00
2022-12-20T05:24:25.156Z,0.00
2022-12-20T05:25:25.152Z,0.00
2022-12-20T05:26:25.125Z,0.00
2022-12-20T05:27:25.119Z,0.00
2022-12-20T05:28:25.105Z,0.00
2022-12-20T05:29:25.086Z,0.00
2022-12-20T05:30:25.074Z,0.00
2022-12-20T05:31:25.091Z,0.00
2022-12-20T05:32:25.047Z,0.00
2022-12-20T05:33:29.000Z,0.00
2022-12-20T05:34:25.023Z,0.00
2022-12-20T05:35:25.009Z,0.00
2022-12-20T05:36:24.984Z,0.00
2022-12-20T05:37:24.971Z,0.00
2022-12-20T05:38:24.975Z,0.00
2022-12-20T05:39:24.946Z,0.00
2022-12-20T05:40:24.931Z,0.00
2022-12-20T05:41:24.914Z,0.00
2022-12-20T05:42:24.901Z,0.00
2022-12-20T05:43:24.886Z,0.00
2022-12-20T05:44:24.876Z,0.00
2022-12-20T05:45:24.866Z,0.00
2022-12-20T05:46:24.912Z,0.00
2022-12-20T05:47:24.832Z,0.00
2022-12-20T05:48:24.821Z,0.00
2022-12-20T05:49:24.803Z,0.00
2022-12-20T05:50:24.795Z,0.00
2022-12-20T05:51:24.788Z,0.00
2022-12-20T05:52:24.761Z,0.00
2022-12-20T05:53:24.748Z,0.00
2022-12-20T05:54:24.741Z,0.00
2022-12-20T05:55:24.719Z,0.00
2022-12-20T05:56:24.701Z,0.00
2022-12-20T05:57:24.691Z,0.00
2022-12-20T05:58:24.684Z,0.00
2022-12-20T05:59:24.663Z,0.00
2022-12-20T06:00:24.651Z,0.00
2022-12-20T06:01:24.647Z,0.00
2022-12-20T06:02:24.742Z,0.00
2022-12-20T06:03:24.665Z,0.00
2022-12-20T06:04:24.640Z,0.00
2022-12-20T06:05:24.582Z,0.00
2022-12-20T06:06:24.561Z,0.00
2022-12-20T06:07:24.559Z,0.00
2022-12-20T06:08:24.534Z,0.00
2022-12-20T06:09:24.520Z,0.00
2022-12-20T06:10:24.511Z,0.00
2022-12-20T06:11:29.612Z,0.00
2022-12-20T06:12:24.479Z,0.00
2022-12-20T06:13:24.466Z,0.00
2022-12-20T06:14:24.445Z,0.00
2022-12-20T06:15:24.440Z,0.00
2022-12-20T06:16:24.516Z,0.00
2022-12-20T06:17:24.414Z,0.00
2022-12-20T06:18:24.393Z,0.00
2022-12-20T06:19:24.386Z,0.00
2022-12-20T06:20:24.362Z,0.00
2022-12-20T06:21:24.353Z,0.00
2022-12-20T06:22:24.336Z,0.00
2022-12-20T06:23:24.324Z,0.00
2022-12-20T06:24:24.309Z,0.00
2022-12-20T06:25:24.294Z,0.00
2022-12-20T06:26:24.284Z,0.00
2022-12-20T06:27:24.269Z,0.00
2022-12-20T06:28:24.254Z,0.00
2022-12-20T06:29:24.239Z,0.00
2022-12-20T06:30:28.849Z,0.00
2022-12-20T06:31:24.265Z,0.00
2022-12-20T06:32:24.195Z,0.00
2022-12-20T06:33:24.183Z,0.00
2022-12-20T06:34:24.170Z,0.00
2022-12-20T06:35:24.155Z,0.00
2022-12-20T06:36:24.137Z,0.00
2022-12-20T06:37:24.126Z,0.00
2022-12-20T06:38:24.114Z,0.00
2022-12-20T06:39:24.095Z,0.00
2022-12-20T06:40:24.099Z,0.00
2022-12-20T06:41:24.067Z,0.00
2022-12-20T06:42:24.057Z,0.00
2022-12-20T06:43:24.046Z,0.00
2022-12-20T06:44:24.023Z,0.00
2022-12-20T06:45:24.008Z,0.00
2022-12-20T06:46:24.031Z,0.00
2022-12-20T06:47:23.979Z,0.00
2022-12-20T06:48:23.967Z,0.00
2022-12-20T06:49:23.954Z,0.00
2022-12-20T06:50:23.944Z,0.00
2022-12-20T06:51:23.927Z,0.00
2022-12-20T06:52:23.937Z,0.00
2022-12-20T06:53:23.899Z,0.00
2022-12-20T06:54:23.883Z,0.00
2022-12-20T06:55:23.875Z,0.00
2022-12-20T06:56:23.855Z,0.00
2022-12-20T06:57:23.844Z,0.00
2022-12-20T06:58:23.829Z,0.00
2022-12-20T06:59:23.819Z,0.00
2022-12-20T07:00:23.798Z,4.00
2022-12-20T07:01:23.882Z,4.00
2022-12-20T07:02:27.283Z,4.00
2022-12-20T07:03:23.878Z,0.00
2022-12-20T07:04:23.743Z,0.00
2022-12-20T07:05:23.738Z,4.00
2022-12-20T07:06:23.714Z,4.00
2022-12-20T07:07:23.709Z,4.00
2022-12-20T07:08:23.690Z,4.00
2022-12-20T07:09:23.675Z,4.00
2022-12-20T07:10:23.661Z,4.00
2022-12-20T07:11:23.648Z,4.00
2022-12-20T07:12:23.631Z,4.00
2022-12-20T07:13:23.616Z,4.00
2022-12-20T07:14:23.603Z,8.00
2022-12-20T07:15:23.609Z,8.00
2022-12-20T07:16:23.655Z,8.00
2022-12-20T07:17:23.570Z,12.00
2022-12-20T07:18:23.549Z,16.00
2022-12-20T07:19:23.532Z,16.00
2022-12-20T07:20:23.521Z,16.00
2022-12-20T07:21:23.514Z,20.00
2022-12-20T07:22:23.514Z,20.00
2022-12-20T07:23:23.480Z,28.00
2022-12-20T07:24:23.460Z,28.00
2022-12-20T07:25:23.458Z,28.00
2022-12-20T07:26:23.433Z,32.00
2022-12-20T07:27:23.421Z,32.00
2022-12-20T07:28:23.408Z,36.00
2022-12-20T07:29:23.392Z,40.00
2022-12-20T07:30:23.381Z,48.00
2022-12-20T07:31:23.436Z,52.00
2022-12-20T07:32:23.370Z,56.00
2022-12-20T07:33:23.348Z,56.00
2022-12-20T07:34:23.320Z,64.00
2022-12-20T07:35:23.310Z,68.00
2022-12-20T07:36:23.297Z,72.00
2022-12-20T07:37:23.282Z,76.00
2022-12-20T07:38:23.265Z,76.00
2022-12-20T07:39:23.252Z,80.00
2022-12-20T07:40:23.235Z,76.00
2022-12-20T07:41:23.224Z,76.00
2022-12-20T07:42:23.210Z,84.00
2022-12-20T07:43:23.198Z,88.00
2022-12-20T07:44:23.177Z,100.00
2022-12-20T07:45:23.170Z,112.00
2022-12-20T07:46:23.181Z,120.00
2022-12-20T07:47:23.150Z,128.00
2022-12-20T07:48:23.137Z,132.00
2022-12-20T07:49:23.153Z,136.00
2022-12-20T07:50:23.108Z,144.00
2022-12-20T07:51:23.083Z,148.00
2022-12-20T07:52:23.071Z,152.00
2022-12-20T07:53:23.056Z,152.00
2022-12-20T07:54:23.039Z,160.00
2022-12-20T07:55:23.032Z,168.00
2022-12-20T07:56:23.035Z,176.00
2022-12-20T07:57:23.005Z,188.00
2022-12-20T07:58:23.019Z,196.00
2022-12-20T07:59:22.971Z,212.00
2022-12-20T08:00:22.960Z,228.00
2022-12-20T08:01:23.104Z,244.00
2022-12-20T08:02:23.054Z,272.00
2022-12-20T08:03:23.022Z,316.00
2022-12-20T08:04:22.900Z,368.00
2022-12-20T08:05:22.893Z,416.00
2022-12-20T08:06:22.872Z,476.00
2022-12-20T08:07:22.861Z,532.00
2022-12-20T08:08:22.847Z,584.00
2022-12-20T08:09:22.831Z,616.00
2022-12-20T08:10:22.818Z,640.00
2022-12-20T08:11:22.819Z,676.00
2022-12-20T08:12:22.794Z,724.00
2022-12-20T08:13:22.776Z,764.00
2022-12-20T08:14:22.761Z,800.00
2022-12-20T08:15:22.754Z,836.00
2022-12-20T08:16:22.790Z,852.00
2022-12-20T08:17:22.727Z,864.00
2022-12-20T08:18:22.705Z,864.00
2022-12-20T08:19:28.264Z,836.00
2022-12-20T08:20:22.687Z,812.00
2022-12-20T08:21:22.674Z,796.00
2022-12-20T08:22:22.651Z,764.00
2022-12-20T08:23:22.640Z,724.00
2022-12-20T08:24:22.623Z,704.00
2022-12-20T08:25:22.641Z,676.00
2022-12-20T08:26:22.603Z,648.00
2022-12-20T08:27:22.614Z,632.00
2022-12-20T08:28:22.568Z,608.00
2022-12-20T08:29:22.553Z,588.00
2022-12-20T08:30:22.537Z,580.00
2022-12-20T08:31:22.603Z,564.00
2022-12-20T08:32:22.514Z,548.00
2022-12-20T08:33:22.510Z,532.00
2022-12-20T08:34:22.487Z,520.00
2022-12-20T08:35:22.473Z,520.00
2022-12-20T08:36:22.455Z,528.00
2022-12-20T08:37:22.443Z,544.00
2022-12-20T08:38:22.427Z,544.00
2022-12-20T08:39:22.421Z,560.00
2022-12-20T08:40:22.408Z,584.00
2022-12-20T08:41:22.390Z,612.00
2022-12-20T08:42:22.393Z,624.00
2022-12-20T08:43:22.368Z,648.00
2022-12-20T08:44:22.353Z,676.00
2022-12-20T08:45:22.325Z,692.00
2022-12-20T08:46:22.393Z,704.00
2022-12-20T08:47:22.309Z,712.00
2022-12-20T08:48:22.282Z,724.00
2022-12-20T08:49:22.277Z,736.00
2022-12-20T08:50:22.268Z,752.00
2022-12-20T08:51:22.338Z,760.00
2022-12-20T08:52:22.272Z,768.00
2022-12-20T08:53:22.232Z,780.00
2022-12-20T08:54:22.210Z,772.00
2022-12-20T08:55:27.704Z,764.00
2022-12-20T08:56:22.181Z,772.00
2022-12-20T08:57:22.178Z,788.00
2022-12-20T08:58:22.153Z,780.00
2022-12-20T08:59:22.142Z,784.00
2022-12-20T09:00:22.131Z,796.00
2022-12-20T09:01:22.273Z,804.00
2022-12-20T09:02:22.363Z,816.00
2022-12-20T09:03:22.214Z,832.00
2022-12-20T09:04:22.071Z,868.00
2022-12-20T09:05:22.058Z,888.00
2022-12-20T09:06:22.040Z,884.00
2022-12-20T09:07:22.028Z,880.00
2022-12-20T09:08:22.025Z,852.00
2022-12-20T09:09:22.022Z,820.00
2022-12-20T09:10:22.003Z,792.00
2022-12-20T09:11:21.990Z,780.00
2022-12-20T09:12:21.973Z,772.00
2022-12-20T09:13:29.199Z,764.00
2022-12-20T09:15:25.920Z,776.00
2022-12-20T09:16:25.957Z,784.00
2022-12-20T09:18:29.803Z,828.00
2022-12-20T09:19:29.778Z,852.00
2022-12-20T09:21:33.716Z,872.00
2022-12-20T09:22:33.718Z,860.00
2022-12-20T09:24:26.629Z,852.00
2022-12-20T09:25:26.607Z,860.00
2022-12-20T09:27:30.551Z,880.00
2022-12-20T09:28:30.522Z,888.00
2022-12-20T09:30:34.448Z,896.00
2022-12-20T09:31:34.497Z,908.00
2022-12-20T09:33:38.399Z,908.00
2022-12-20T09:34:38.366Z,868.00
2022-12-20T09:36:42.352Z,768.00
2022-12-20T09:37:42.319Z,728.00
2022-12-20T09:39:46.256Z,684.00
2022-12-20T09:40:46.226Z,724.00
2022-12-20T09:42:50.179Z,832.00
2022-12-20T09:43:50.165Z,872.00
2022-12-20T09:45:54.167Z,900.00
2022-12-20T09:46:54.131Z,896.00
2022-12-20T09:48:58.018Z,956.00
2022-12-20T09:49:57.971Z,964.00
2022-12-20T09:50:57.958Z,972.00
2022-12-20T09:51:57.948Z,976.00
2022-12-20T09:52:57.966Z,968.00
2022-12-20T09:53:57.927Z,968.00
2022-12-20T09:54:57.908Z,956.00
2022-12-20T09:55:57.898Z,932.00
2022-12-20T09:56:57.878Z,924.00
2022-12-20T09:57:57.866Z,900.00
2022-12-20T09:58:57.852Z,892.00
2022-12-20T09:59:57.835Z,880.00
2022-12-20T10:00:57.827Z,868.00
2022-12-20T10:02:07.934Z,872.00
2022-12-20T10:03:08.254Z,880.00
2022-12-20T10:03:57.904Z,892.00
2022-12-20T10:04:57.914Z,924.00
2022-12-20T10:05:57.980Z,940.00
2022-12-20T10:06:57.746Z,956.00
2022-12-20T10:07:57.731Z,964.00
2022-12-20T10:08:57.706Z,976.00
2022-12-20T10:09:57.708Z,996.00
2022-12-20T10:10:57.713Z,1016.00
2022-12-20T10:11:57.678Z,1036.00
2022-12-20T10:12:57.667Z,1048.00
2022-12-20T10:13:57.650Z,1036.00
2022-12-20T10:14:57.633Z,1040.00
2022-12-20T10:15:57.660Z,1024.00
2022-12-20T10:16:57.623Z,1008.00
2022-12-20T10:17:57.603Z,1000.00
2022-12-20T10:18:57.585Z,996.00
2022-12-20T10:19:57.582Z,992.00
2022-12-20T10:20:57.553Z,992.00
2022-12-20T10:21:57.539Z,980.00
2022-12-20T10:22:57.536Z,968.00
2022-12-20T10:23:57.514Z,964.00
2022-12-20T10:24:57.497Z,908.00
2022-12-20T10:25:57.488Z,852.00
2022-12-20T10:26:57.477Z,804.00
2022-12-20T10:27:57.467Z,788.00
2022-12-20T10:28:57.450Z,792.00
2022-12-20T10:29:57.440Z,788.00
2022-12-20T10:30:57.451Z,768.00
2022-12-20T10:31:57.410Z,772.00
2022-12-20T10:32:57.397Z,808.00
2022-12-20T10:33:57.391Z,860.00
2022-12-20T10:34:57.362Z,932.00
2022-12-20T10:35:57.354Z,1000.00
2022-12-20T10:36:57.343Z,1060.00
2022-12-20T10:38:07.085Z,1104.00
2022-12-20T10:38:57.353Z,1136.00
2022-12-20T10:40:02.029Z,1192.00
2022-12-20T10:41:23.773Z,1252.00
2022-12-20T10:41:57.271Z,1316.00
2022-12-20T10:42:57.263Z,1320.00
2022-12-20T10:43:57.252Z,1336.00
2022-12-20T10:44:57.226Z,1388.00
2022-12-20T10:45:57.220Z,1436.00
2022-12-20T10:46:57.282Z,1440.00
2022-12-20T10:47:57.195Z,1444.00
2022-12-20T10:48:57.204Z,1464.00
2022-12-20T10:49:57.165Z,1456.00
2022-12-20T10:50:57.163Z,1424.00
2022-12-20T10:51:57.157Z,1372.00
2022-12-20T10:52:57.132Z,1312.00
2022-12-20T10:53:57.137Z,1268.00
2022-12-20T10:54:57.104Z,1200.00
2022-12-20T10:55:57.098Z,1148.00
2022-12-20T10:56:57.081Z,1100.00
2022-12-20T10:57:57.064Z,1104.00
2022-12-20T10:58:57.053Z,1128.00
2022-12-20T10:59:57.031Z,1168.00
2022-12-20T11:00:57.019Z,1244.00
2022-12-20T11:01:57.279Z,1296.00
2022-12-20T11:02:57.148Z,1352.00
2022-12-20T11:03:57.094Z,1428.00
2022-12-20T11:04:56.957Z,1520.00
2022-12-20T11:05:56.974Z,1624.00
2022-12-20T11:06:56.941Z,1720.00
2022-12-20T11:09:00.730Z,1952.00
2022-12-20T11:09:56.913Z,1960.00
2022-12-20T11:10:56.887Z,1916.00
2022-12-20T11:11:56.923Z,1912.00
2022-12-20T11:12:56.894Z,1916.00
2022-12-20T11:13:56.867Z,1980.00
2022-12-20T11:14:56.831Z,2040.00
2022-12-20T11:15:56.993Z,2120.00
2022-12-20T11:16:56.817Z,2148.00
2022-12-20T11:17:56.801Z,2160.00
2022-12-20T11:18:56.795Z,2160.00
2022-12-20T11:19:56.769Z,2172.00
2022-12-20T11:20:56.753Z,2160.00
2022-12-20T11:21:56.744Z,2200.00
2022-12-20T11:22:56.742Z,2232.00
2022-12-20T11:23:56.723Z,2256.00
2022-12-20T11:24:56.700Z,2264.00
2022-12-20T11:25:56.701Z,2256.00
2022-12-20T11:26:56.691Z,2216.00
2022-12-20T11:27:56.669Z,2188.00
2022-12-20T11:28:56.663Z,2204.00
2022-12-20T11:29:56.639Z,2176.00
2022-12-20T11:30:56.783Z,2124.00
2022-12-20T11:31:56.678Z,2084.00
2022-12-20T11:32:56.603Z,2004.00
2022-12-20T11:33:56.590Z,1932.00
2022-12-20T11:34:56.576Z,1852.00
2022-12-20T11:35:56.563Z,1752.00
2022-12-20T11:36:56.543Z,1684.00
2022-12-20T11:37:56.541Z,1608.00
2022-12-20T11:38:56.531Z,1516.00
2022-12-20T11:39:56.520Z,1388.00
2022-12-20T11:40:56.497Z,1284.00
2022-12-20T11:41:56.493Z,1184.00
2022-12-20T11:42:56.485Z,1104.00
2022-12-20T11:44:23.797Z,1076.00
2022-12-20T11:45:06.622Z,1040.00
2022-12-20T11:45:56.436Z,1012.00
2022-12-20T11:46:56.479Z,1012.00
2022-12-20T11:47:56.412Z,1028.00
2022-12-20T11:48:56.399Z,1068.00
2022-12-20T11:49:56.381Z,1132.00
2022-12-20T11:50:56.373Z,1228.00
2022-12-20T11:51:56.360Z,1364.00
2022-12-20T11:52:56.351Z,1528.00
2022-12-20T11:53:56.337Z,1668.00
2022-12-20T11:54:56.317Z,1792.00
2022-12-20T11:55:56.304Z,1864.00
2022-12-20T11:56:56.293Z,1912.00
2022-12-20T11:58:17.362Z,1920.00
2022-12-20T11:58:56.276Z,1960.00
2022-12-20T11:59:56.287Z,2028.00
2022-12-20T12:00:56.242Z,2136.00
2022-12-20T12:01:56.298Z,2192.00
2022-12-20T12:02:58.645Z,2192.00
2022-12-20T12:03:56.213Z,2164.00
2022-12-20T12:04:56.250Z,2120.00
2022-12-20T12:05:56.209Z,2076.00
2022-12-20T12:06:56.195Z,1976.00
2022-12-20T12:07:56.168Z,1832.00
2022-12-20T12:08:56.139Z,1688.00
2022-12-20T12:09:56.149Z,1572.00
2022-12-20T12:10:56.113Z,1468.00
2022-12-20T12:12:06.756Z,1352.00
2022-12-20T12:12:56.087Z,1296.00
2022-12-20T12:13:56.077Z,1300.00
2022-12-20T12:14:56.063Z,1304.00
2022-12-20T12:15:56.050Z,1312.00
2022-12-20T12:16:56.089Z,1316.00
2022-12-20T12:17:56.026Z,1304.00
2022-12-20T12:18:56.012Z,1332.00
2022-12-20T12:19:56.000Z,1368.00
2022-12-20T12:20:55.983Z,1396.00
2022-12-20T12:21:55.973Z,1380.00
2022-12-20T12:22:55.961Z,1336.00
2022-12-20T12:23:55.947Z,1256.00
2022-12-20T12:24:55.952Z,1172.00
2022-12-20T12:25:55.935Z,1080.00
2022-12-20T12:26:55.921Z,1012.00
2022-12-20T12:27:55.893Z,964.00
2022-12-20T12:28:55.898Z,892.00
2022-12-20T12:29:55.868Z,820.00
2022-12-20T12:30:55.860Z,760.00
2022-12-20T12:31:55.911Z,724.00
2022-12-20T12:32:55.832Z,720.00
2022-12-20T12:33:55.819Z,748.00
2022-12-20T12:34:55.806Z,800.00
2022-12-20T12:35:55.802Z,884.00
2022-12-20T12:36:55.777Z,972.00
2022-12-20T12:37:55.769Z,1032.00
2022-12-20T12:39:01.910Z,1068.00
2022-12-20T12:39:55.743Z,1060.00
2022-12-20T12:40:55.733Z,1020.00
2022-12-20T12:41:55.720Z,1008.00
2022-12-20T12:42:55.709Z,1036.00
2022-12-20T12:43:55.686Z,1112.00
2022-12-20T12:44:55.681Z,1192.00
2022-12-20T12:45:55.736Z,1292.00
2022-12-20T12:46:55.658Z,1360.00
2022-12-20T12:47:55.652Z,1416.00
2022-12-20T12:48:55.636Z,1484.00
2022-12-20T12:49:55.618Z,1464.00
2022-12-20T12:50:55.626Z,1424.00
2022-12-20T12:51:55.598Z,1404.00
2022-12-20T12:52:55.579Z,1436.00
2022-12-20T12:53:55.562Z,1512.00
2022-12-20T12:54:55.550Z,1580.00
2022-12-20T12:56:12.791Z,1652.00
2022-12-20T12:56:55.535Z,1656.00
2022-12-20T12:57:55.531Z,1628.00
2022-12-20T12:58:55.500Z,1552.00
2022-12-20T12:59:55.486Z,1500.00
2022-12-20T13:00:55.535Z,1456.00
2022-12-20T13:01:55.582Z,1416.00
2022-12-20T13:02:55.583Z,1388.00
2022-12-20T13:03:55.461Z,1428.00
2022-12-20T13:04:55.423Z,1552.00
2022-12-20T13:05:55.414Z,1732.00
2022-12-20T13:06:55.402Z,1908.00
2022-12-20T13:07:55.390Z,2068.00
2022-12-20T13:08:55.374Z,2216.00
2022-12-20T13:09:55.401Z,2208.00
2022-12-20T13:10:55.350Z,2092.00
2022-12-20T13:12:01.123Z,1908.00